QTR74Y EGCC-OTHH
Flight info
| Callsign | QTR74Y |
|---|---|
| Flight time | N/A |
| Altitude | 37000 |
| Route | DESIG L603 DOLAS DCT NAVPI DCT NOLRU DCT DODEN DCT NEGIX DCT DINKU M867 XERUM DCT BAVAX DCT RADIZ DCT NIPEL DCT ELTIB DCT GLOMY DCT INLOT DCT PINDO DCT PAXIS Y707 OBRAN L321 REXUM M872 FYM/N0487F390 M872 WEJ L604 GAS G662 KSA N687 KINIB Z511 GISRA L681 ORLEK |
| Aircraft | A35K/H-SDE2E3GHIJ3J4J5LM1ORWXY/LB1D1 |
Departure
| Time | N/A |
|---|---|
| Airport | Manchester Airport (EGCC) |
Arrival
| Time | 2026-05-06 22:05 |
|---|---|
| Airport | Hamad International Airport (OTHH) |
| Time | Latitude | Longitude | Altitude | Speed | Heading |
|---|---|---|---|---|---|
| 2026-05-06 21:09 | 25.15167 | 46.26993 | 36964 ft | 537 kts | 122° |
| 2026-05-06 21:09 | 25.11963 | 46.34480 | 37082 ft | 538 kts | 122° |
| 2026-05-06 21:09 | 25.10368 | 46.38203 | 37423 ft | 537 kts | 122° |
| 2026-05-06 21:10 | 25.08775 | 46.41921 | 37773 ft | 535 kts | 122° |
| 2026-05-06 21:10 | 25.07183 | 46.45631 | 38095 ft | 535 kts | 122° |
| 2026-05-06 21:10 | 25.05591 | 46.49336 | 38410 ft | 534 kts | 122° |
| 2026-05-06 21:10 | 25.04000 | 46.53037 | 38708 ft | 534 kts | 122° |
| 2026-05-06 21:11 | 25.02412 | 46.56744 | 38925 ft | 535 kts | 121° |
| 2026-05-06 21:11 | 25.00332 | 46.64640 | 38994 ft | 548 kts | 100° |
| 2026-05-06 21:11 | 25.00245 | 46.68917 | 38999 ft | 554 kts | 88° |
| 2026-05-06 21:12 | 25.00885 | 46.73063 | 38993 ft | 559 kts | 76° |
| 2026-05-06 21:12 | 25.03763 | 46.81040 | 38989 ft | 561 kts | 66° |
| 2026-05-06 21:13 | 25.07091 | 46.88852 | 38983 ft | 562 kts | 65° |
| 2026-05-06 21:13 | 25.10431 | 46.96656 | 38979 ft | 562 kts | 65° |
| 2026-05-06 21:14 | 25.13715 | 47.04485 | 38973 ft | 562 kts | 66° |
| 2026-05-06 21:14 | 25.16967 | 47.12331 | 38960 ft | 562 kts | 66° |
| 2026-05-06 21:15 | 25.20209 | 47.20177 | 38957 ft | 562 kts | 66° |
| 2026-05-06 21:15 | 25.23449 | 47.28027 | 38963 ft | 562 kts | 66° |
| 2026-05-06 21:16 | 25.26685 | 47.35877 | 38963 ft | 562 kts | 66° |
| 2026-05-06 21:16 | 25.29905 | 47.43701 | 38958 ft | 561 kts | 66° |
| 2026-05-06 21:17 | 25.33134 | 47.51560 | 38959 ft | 561 kts | 66° |
| 2026-05-06 21:17 | 25.36362 | 47.59430 | 38943 ft | 562 kts | 66° |
| 2026-05-06 21:18 | 25.39585 | 47.67305 | 38957 ft | 562 kts | 66° |
| 2026-05-06 21:18 | 25.42804 | 47.75187 | 38945 ft | 562 kts | 66° |
| 2026-05-06 21:19 | 25.46001 | 47.83037 | 38944 ft | 562 kts | 66° |
| 2026-05-06 21:19 | 25.49209 | 47.90932 | 38945 ft | 562 kts | 66° |
| 2026-05-06 21:20 | 25.52420 | 47.98844 | 38945 ft | 563 kts | 66° |
| 2026-05-06 21:20 | 25.55627 | 48.06753 | 38939 ft | 563 kts | 66° |
| 2026-05-06 21:21 | 25.58838 | 48.14686 | 38937 ft | 564 kts | 66° |
| 2026-05-06 21:21 | 25.62047 | 48.22625 | 38934 ft | 564 kts | 66° |
| 2026-05-06 21:22 | 25.65251 | 48.30571 | 38927 ft | 565 kts | 66° |
| 2026-05-06 21:22 | 25.67804 | 48.38707 | 38924 ft | 560 kts | 83° |
| 2026-05-06 21:22 | 25.68180 | 48.42979 | 38922 ft | 554 kts | 95° |
| 2026-05-06 21:23 | 25.68095 | 48.47234 | 38918 ft | 552 kts | 97° |
| 2026-05-06 21:23 | 25.67596 | 48.55714 | 38925 ft | 550 kts | 99° |
| 2026-05-06 21:24 | 25.66987 | 48.64173 | 38910 ft | 550 kts | 99° |
| 2026-05-06 21:24 | 25.66403 | 48.72622 | 38915 ft | 550 kts | 99° |
| 2026-05-06 21:25 | 25.65845 | 48.81070 | 38900 ft | 549 kts | 98° |
| 2026-05-06 21:25 | 25.65291 | 48.89517 | 38904 ft | 549 kts | 98° |
| 2026-05-06 21:26 | 25.64731 | 48.97965 | 38906 ft | 549 kts | 98° |
| 2026-05-06 21:26 | 25.64170 | 49.06354 | 38903 ft | 549 kts | 98° |
| 2026-05-06 21:27 | 25.63599 | 49.14793 | 38897 ft | 549 kts | 98° |
| 2026-05-06 21:27 | 25.63023 | 49.23251 | 38893 ft | 549 kts | 98° |
| 2026-05-06 21:28 | 25.62444 | 49.31676 | 38891 ft | 548 kts | 98° |
| 2026-05-06 21:28 | 25.61864 | 49.40103 | 38881 ft | 548 kts | 98° |
| 2026-05-06 21:29 | 25.61275 | 49.48489 | 38881 ft | 548 kts | 98° |
| 2026-05-06 21:29 | 25.60679 | 49.56912 | 38869 ft | 548 kts | 98° |
| 2026-05-06 21:30 | 25.60080 | 49.65322 | 38869 ft | 548 kts | 98° |
| 2026-05-06 21:30 | 25.59476 | 49.73734 | 38871 ft | 547 kts | 98° |
| 2026-05-06 21:31 | 25.58868 | 49.82146 | 38869 ft | 547 kts | 98° |
| 2026-05-06 21:31 | 25.58256 | 49.90545 | 38867 ft | 547 kts | 98° |
| 2026-05-06 21:32 | 25.57640 | 49.98936 | 38867 ft | 547 kts | 98° |
| 2026-05-06 21:32 | 25.56820 | 50.10040 | 38606 ft | 541 kts | 98° |
| 2026-05-06 21:33 | 25.56507 | 50.14210 | 38359 ft | 546 kts | 98° |
| 2026-05-06 21:33 | 25.56152 | 50.18397 | 38165 ft | 546 kts | 102° |
| 2026-05-06 21:33 | 25.55401 | 50.22492 | 38023 ft | 540 kts | 111° |
| 2026-05-06 21:33 | 25.54095 | 50.26358 | 37884 ft | 532 kts | 122° |
| 2026-05-06 21:34 | 25.52241 | 50.29847 | 37768 ft | 522 kts | 133° |
| 2026-05-06 21:34 | 25.49895 | 50.32863 | 37629 ft | 511 kts | 143° |
| 2026-05-06 21:34 | 25.47185 | 50.35323 | 37286 ft | 498 kts | 153° |
| 2026-05-06 21:34 | 25.44203 | 50.37163 | 36594 ft | 486 kts | 164° |
| 2026-05-06 21:35 | 25.41069 | 50.38334 | 35868 ft | 478 kts | 173° |
| 2026-05-06 21:35 | 25.37771 | 50.38952 | 35121 ft | 472 kts | 181° |
| 2026-05-06 21:35 | 25.34548 | 50.39038 | 34403 ft | 467 kts | 188° |
| 2026-05-06 21:35 | 25.31325 | 50.38638 | 33641 ft | 464 kts | 195° |
| 2026-05-06 21:36 | 25.28205 | 50.37763 | 32749 ft | 462 kts | 202° |
| 2026-05-06 21:36 | 25.25226 | 50.36427 | 31865 ft | 462 kts | 210° |
| 2026-05-06 21:36 | 25.22436 | 50.34663 | 30958 ft | 463 kts | 216° |
| 2026-05-06 21:36 | 25.19881 | 50.32492 | 30049 ft | 465 kts | 223° |
| 2026-05-06 21:37 | 25.17623 | 50.29929 | 29004 ft | 467 kts | 232° |
| 2026-05-06 21:37 | 25.15982 | 50.26844 | 28169 ft | 466 kts | 248° |
| 2026-05-06 21:37 | 25.15194 | 50.23425 | 27455 ft | 466 kts | 262° |
| 2026-05-06 21:37 | 25.15288 | 50.19856 | 26765 ft | 468 kts | 277° |
| 2026-05-06 21:38 | 25.16278 | 50.16429 | 26115 ft | 471 kts | 293° |
| 2026-05-06 21:38 | 25.18075 | 50.13401 | 25511 ft | 473 kts | 307° |
| 2026-05-06 21:38 | 25.20261 | 50.10685 | 24904 ft | 471 kts | 309° |
| 2026-05-06 21:38 | 25.22438 | 50.07997 | 24335 ft | 466 kts | 307° |
| 2026-05-06 21:39 | 25.24450 | 50.05215 | 23775 ft | 461 kts | 304° |
| 2026-05-06 21:39 | 25.26260 | 50.02311 | 23149 ft | 456 kts | 300° |
| 2026-05-06 21:39 | 25.27944 | 49.99364 | 22423 ft | 454 kts | 303° |
| 2026-05-06 21:39 | 25.30074 | 49.96788 | 21731 ft | 455 kts | 316° |
| 2026-05-06 21:40 | 25.32600 | 49.94691 | 21165 ft | 453 kts | 326° |
| 2026-05-06 21:40 | 25.35399 | 49.93102 | 20916 ft | 453 kts | 335° |
| 2026-05-06 21:40 | 25.38385 | 49.91940 | 20871 ft | 456 kts | 341° |
| 2026-05-06 21:40 | 25.41465 | 49.91096 | 20870 ft | 458 kts | 348° |
| 2026-05-06 21:41 | 25.44637 | 49.90772 | 20877 ft | 460 kts | 359° |
| 2026-05-06 21:41 | 25.47771 | 49.91227 | 20869 ft | 463 kts | 14° |
| 2026-05-06 21:41 | 25.50743 | 49.92609 | 20870 ft | 465 kts | 30° |
| 2026-05-06 21:41 | 25.53258 | 49.94846 | 20866 ft | 466 kts | 47° |
| 2026-05-06 21:42 | 25.55127 | 49.97767 | 20868 ft | 466 kts | 63° |
| 2026-05-06 21:42 | 25.56195 | 50.01133 | 20865 ft | 464 kts | 80° |
| 2026-05-06 21:42 | 25.56383 | 50.04681 | 20860 ft | 461 kts | 96° |
| 2026-05-06 21:42 | 25.55703 | 50.08132 | 20877 ft | 458 kts | 110° |
| 2026-05-06 21:43 | 25.54666 | 50.11465 | 20859 ft | 458 kts | 110° |
| 2026-05-06 21:43 | 25.53690 | 50.14825 | 20867 ft | 459 kts | 109° |
| 2026-05-06 21:43 | 25.52799 | 50.18226 | 20867 ft | 459 kts | 107° |
| 2026-05-06 21:43 | 25.51965 | 50.21640 | 20864 ft | 460 kts | 107° |
| 2026-05-06 21:44 | 25.51163 | 50.25061 | 20863 ft | 460 kts | 106° |
| 2026-05-06 21:44 | 25.50386 | 50.28452 | 20858 ft | 460 kts | 106° |
| 2026-05-06 21:44 | 25.49606 | 50.31892 | 20864 ft | 460 kts | 106° |
| 2026-05-06 21:44 | 25.48831 | 50.35330 | 20856 ft | 460 kts | 106° |
| 2026-05-06 21:45 | 25.48059 | 50.38763 | 20846 ft | 459 kts | 106° |
| 2026-05-06 21:45 | 25.47288 | 50.42196 | 20861 ft | 459 kts | 105° |
| 2026-05-06 21:45 | 25.46519 | 50.45617 | 20854 ft | 458 kts | 106° |
| 2026-05-06 21:45 | 25.45750 | 50.49043 | 20855 ft | 458 kts | 106° |
| 2026-05-06 21:46 | 25.44980 | 50.52462 | 20856 ft | 458 kts | 105° |
| 2026-05-06 21:46 | 25.44210 | 50.55884 | 20838 ft | 458 kts | 106° |
| 2026-05-06 21:46 | 25.43441 | 50.59298 | 20851 ft | 458 kts | 106° |
| 2026-05-06 21:46 | 25.42568 | 50.62682 | 20835 ft | 456 kts | 111° |
| 2026-05-06 21:47 | 25.41468 | 50.65969 | 20365 ft | 454 kts | 113° |
| 2026-05-06 21:47 | 25.40311 | 50.69217 | 19631 ft | 453 kts | 113° |
| 2026-05-06 21:47 | 25.39171 | 50.72402 | 19025 ft | 449 kts | 113° |
| 2026-05-06 21:47 | 25.38034 | 50.75591 | 18460 ft | 443 kts | 113° |
| 2026-05-06 21:48 | 25.36906 | 50.78758 | 17864 ft | 438 kts | 112° |
| 2026-05-06 21:48 | 25.35801 | 50.81868 | 17292 ft | 431 kts | 112° |
| 2026-05-06 21:48 | 25.34714 | 50.84928 | 16760 ft | 424 kts | 112° |
| 2026-05-06 21:48 | 25.33641 | 50.87945 | 16232 ft | 419 kts | 112° |
| 2026-05-06 21:49 | 25.32579 | 50.90931 | 15713 ft | 414 kts | 112° |
| 2026-05-06 21:49 | 25.31530 | 50.93879 | 15199 ft | 411 kts | 111° |
| 2026-05-06 21:49 | 25.30485 | 50.96814 | 14682 ft | 408 kts | 111° |
| 2026-05-06 21:49 | 25.29451 | 50.99715 | 14249 ft | 404 kts | 111° |
| 2026-05-06 21:50 | 25.28438 | 51.02558 | 13814 ft | 401 kts | 111° |
| 2026-05-06 21:50 | 25.27438 | 51.05422 | 13298 ft | 397 kts | 109° |
| 2026-05-06 21:50 | 25.26862 | 51.08388 | 12802 ft | 394 kts | 94° |
| 2026-05-06 21:50 | 25.26815 | 51.11410 | 12308 ft | 392 kts | 89° |
| 2026-05-06 21:51 | 25.26865 | 51.14416 | 11818 ft | 391 kts | 88° |
| 2026-05-06 21:51 | 25.26916 | 51.17402 | 11446 ft | 384 kts | 88° |
| 2026-05-06 21:51 | 25.26958 | 51.20312 | 11201 ft | 370 kts | 88° |
| 2026-05-06 21:51 | 25.26993 | 51.23104 | 10961 ft | 358 kts | 88° |
| 2026-05-06 21:52 | 25.26913 | 51.25811 | 10716 ft | 347 kts | 97° |
| 2026-05-06 21:52 | 25.26788 | 51.26655 | 10649 ft | 343 kts | 100° |
| 2026-05-06 21:52 | 25.26456 | 51.28360 | 10510 ft | 336 kts | 102° |
| 2026-05-06 21:52 | 25.25920 | 51.30828 | 10311 ft | 325 kts | 102° |
| 2026-05-06 21:53 | 25.25398 | 51.33217 | 10116 ft | 314 kts | 102° |
| 2026-05-06 21:53 | 25.24899 | 51.35521 | 10011 ft | 302 kts | 102° |
| 2026-05-06 21:53 | 25.24417 | 51.37763 | 10004 ft | 299 kts | 102° |
| 2026-05-06 21:53 | 25.23937 | 51.40004 | 10002 ft | 299 kts | 102° |
| 2026-05-06 21:54 | 25.23459 | 51.42237 | 9988 ft | 299 kts | 102° |
| 2026-05-06 21:54 | 25.22982 | 51.44464 | 9873 ft | 295 kts | 102° |
| 2026-05-06 21:54 | 25.22439 | 51.46658 | 9323 ft | 300 kts | 110° |
| 2026-05-06 21:54 | 25.21276 | 51.48552 | 8632 ft | 300 kts | 138° |
| 2026-05-06 21:55 | 25.19470 | 51.49692 | 7826 ft | 299 kts | 158° |
| 2026-05-06 21:55 | 25.17551 | 51.50495 | 7055 ft | 298 kts | 159° |
| 2026-05-06 21:55 | 25.15634 | 51.51289 | 6610 ft | 289 kts | 158° |
| 2026-05-06 21:55 | 25.13748 | 51.52095 | 6368 ft | 291 kts | 158° |
| 2026-05-06 21:56 | 25.11864 | 51.52901 | 6134 ft | 290 kts | 158° |
| 2026-05-06 21:56 | 25.09984 | 51.53707 | 5913 ft | 290 kts | 158° |
| 2026-05-06 21:56 | 25.08118 | 51.54527 | 5807 ft | 283 kts | 157° |
| 2026-05-06 21:56 | 25.06344 | 51.55310 | 5677 ft | 272 kts | 156° |
| 2026-05-06 21:57 | 25.04622 | 51.56071 | 5547 ft | 261 kts | 156° |
| 2026-05-06 21:57 | 25.02957 | 51.56804 | 5353 ft | 248 kts | 156° |
| 2026-05-06 21:57 | 25.01379 | 51.57517 | 5202 ft | 249 kts | 154° |
| 2026-05-06 21:57 | 24.99954 | 51.58527 | 5081 ft | 238 kts | 136° |
| 2026-05-06 21:58 | 24.98996 | 51.59962 | 4591 ft | 230 kts | 110° |
| 2026-05-06 21:58 | 24.98770 | 51.61668 | 4189 ft | 224 kts | 82° |
| 2026-05-06 21:58 | 24.99237 | 51.63300 | 4037 ft | 225 kts | 64° |
| 2026-05-06 21:58 | 24.99961 | 51.64839 | 3938 ft | 228 kts | 63° |
| 2026-05-06 21:59 | 25.00595 | 51.66429 | 3796 ft | 226 kts | 67° |
| 2026-05-06 21:59 | 25.01312 | 51.67971 | 3691 ft | 226 kts | 56° |
| 2026-05-06 21:59 | 25.02409 | 51.69187 | 3557 ft | 226 kts | 30° |
| 2026-05-06 21:59 | 25.03920 | 51.69617 | 3449 ft | 226 kts | 2° |
| 2026-05-06 22:00 | 25.05471 | 51.69401 | 3370 ft | 225 kts | 345° |
| 2026-05-06 22:00 | 25.06917 | 51.68785 | 3270 ft | 227 kts | 337° |
| 2026-05-06 22:00 | 25.08369 | 51.68108 | 3146 ft | 219 kts | 339° |
| 2026-05-06 22:00 | 25.09726 | 51.67503 | 3024 ft | 207 kts | 339° |
| 2026-05-06 22:01 | 25.11021 | 51.66936 | 2925 ft | 196 kts | 339° |
| 2026-05-06 22:01 | 25.12273 | 51.66396 | 2713 ft | 191 kts | 339° |
| 2026-05-06 22:01 | 25.13498 | 51.65859 | 2462 ft | 188 kts | 339° |
| 2026-05-06 22:01 | 25.14697 | 51.65327 | 2240 ft | 184 kts | 338° |
| 2026-05-06 22:02 | 25.15874 | 51.64807 | 1989 ft | 180 kts | 339° |
| 2026-05-06 22:02 | 25.17027 | 51.64299 | 1765 ft | 175 kts | 339° |
| 2026-05-06 22:02 | 25.18120 | 51.63817 | 1547 ft | 164 kts | 338° |
| 2026-05-06 22:02 | 25.19144 | 51.63365 | 1333 ft | 153 kts | 338° |
| 2026-05-06 22:03 | 25.20105 | 51.62938 | 1149 ft | 144 kts | 339° |
| 2026-05-06 22:03 | 25.20998 | 51.62545 | 974 ft | 134 kts | 339° |
| 2026-05-06 22:03 | 25.21860 | 51.62165 | 817 ft | 133 kts | 339° |
| 2026-05-06 22:03 | 25.22726 | 51.61783 | 654 ft | 134 kts | 339° |
| 2026-05-06 22:04 | 25.23589 | 51.61409 | 541 ft | 132 kts | 339° |
| 2026-05-06 22:04 | 25.24420 | 51.61043 | 376 ft | 129 kts | 337° |
| 2026-05-06 22:04 | 25.25240 | 51.60658 | 168 ft | 129 kts | 339° |
| 2026-05-06 22:04 | 25.26081 | 51.60306 | 49 ft | 128 kts | 340° |
| 2026-05-06 22:05 | 25.26840 | 51.59974 | 33 ft | 102 kts | 338° |
| 2026-05-06 22:05 | 25.27365 | 51.59741 | 34 ft | 50 kts | 338° |
| 2026-05-06 22:05 | 25.27516 | 51.59674 | 33 ft | 17 kts | 338° |
| 2026-05-06 22:05 | 25.27627 | 51.59624 | 32 ft | 18 kts | 338° |
| 2026-05-06 22:06 | 25.27743 | 51.59574 | 32 ft | 18 kts | 339° |
| 2026-05-06 22:06 | 25.27865 | 51.59531 | 31 ft | 19 kts | 350° |
| 2026-05-06 22:06 | 25.27969 | 51.59527 | 32 ft | 12 kts | 2° |
| 2026-05-06 22:06 | 25.28026 | 51.59531 | 33 ft | 8 kts | 4° |
| 2026-05-06 22:07 | 25.28085 | 51.59541 | 34 ft | 7 kts | 20° |
| 2026-05-06 22:07 | 25.28116 | 51.59582 | 34 ft | 6 kts | 78° |
| 2026-05-06 22:07 | 25.28091 | 51.59620 | 32 ft | 8 kts | 148° |
| 2026-05-06 22:07 | 25.28041 | 51.59646 | 33 ft | 11 kts | 156° |
| 2026-05-06 22:08 | 25.27964 | 51.59683 | 33 ft | 13 kts | 156° |
| 2026-05-06 22:08 | 25.27869 | 51.59727 | 33 ft | 16 kts | 158° |
| 2026-05-06 22:08 | 25.27757 | 51.59777 | 33 ft | 19 kts | 159° |
| 2026-05-06 22:08 | 25.27625 | 51.59833 | 33 ft | 21 kts | 159° |
| 2026-05-06 22:09 | 25.27479 | 51.59897 | 33 ft | 24 kts | 158° |
| 2026-05-06 22:09 | 25.27318 | 51.59969 | 34 ft | 26 kts | 158° |
| 2026-05-06 22:09 | 25.27143 | 51.60047 | 33 ft | 28 kts | 158° |
| 2026-05-06 22:09 | 25.26953 | 51.60132 | 33 ft | 30 kts | 158° |
| 2026-05-06 22:10 | 25.26756 | 51.60219 | 32 ft | 26 kts | 158° |
| 2026-05-06 22:10 | 25.26627 | 51.60276 | 33 ft | 17 kts | 159° |
| 2026-05-06 22:10 | 25.26515 | 51.60325 | 34 ft | 19 kts | 158° |
| 2026-05-06 22:10 | 25.26386 | 51.60381 | 34 ft | 21 kts | 159° |
| 2026-05-06 22:11 | 25.26245 | 51.60442 | 34 ft | 20 kts | 158° |
| 2026-05-06 22:11 | 25.26149 | 51.60484 | 34 ft | 15 kts | 158° |
| 2026-05-06 22:11 | 25.26079 | 51.60519 | 34 ft | 9 kts | 148° |
| 2026-05-06 22:11 | 25.26056 | 51.60571 | 34 ft | 8 kts | 91° |
| 2026-05-06 22:12 | 25.26076 | 51.60643 | 33 ft | 12 kts | 70° |
| 2026-05-06 22:12 | 25.26109 | 51.60737 | 32 ft | 15 kts | 68° |
| 2026-05-06 22:12 | 25.26152 | 51.60856 | 31 ft | 18 kts | 68° |
| 2026-05-06 22:12 | 25.26199 | 51.60981 | 29 ft | 11 kts | 68° |
| 2026-05-06 22:13 | 25.26221 | 51.61040 | 28 ft | 7 kts | 66° |
| 2026-05-06 22:13 | 25.26242 | 51.61070 | 27 ft | 5 kts | 37° |
| 2026-05-06 22:13 | 25.26275 | 51.61076 | 27 ft | 2 kts | 2° |
| 2026-05-06 22:13 | 25.26299 | 51.61082 | 27 ft | 4 kts | 23° |
| 2026-05-06 22:14 | 25.26319 | 51.61111 | 30 ft | 5 kts | 63° |
| 2026-05-06 22:14 | 25.26329 | 51.61141 | 30 ft | 4 kts | 68° |
| 2026-05-06 22:14 | 25.26336 | 51.61159 | 31 ft | 1 kts | 68° |
| 2026-05-06 22:14 | 25.26337 | 51.61161 | 31 ft | 0 kts | 68° |